Time;durP1;ratioP1;P1;durP2;ratioP2;P2;SDS_P1;SDS_P2;PMS_P1;PMS_P2;Temp;Humidity;BMP_temperature;BMP_pressure;BME280_temperature;BME280_humidity;BME280_pressure;Samples;Min_cycle;Max_cycle;Signal;HPM_P1;HPM_P2
2021/12/17 00:00:09;;;;;;;;;;;;;;;3.14;100.00;99469.78;1723915;83;20100;-77
2021/12/17 00:05:32;;;;;;;;;;;;;;;3.18;100.00;99474.13;1723809;82;20357;-76
2021/12/17 00:07:51;;;;;;;;;;;;;;;3.16;100.00;99470.33;1722794;83;20084;-77
2021/12/17 00:10:17;;;;;;;;;;;;;;;3.14;100.00;99459.47;1723865;82;20214;-76
2021/12/17 00:12:45;;;;;;;;;;;;;;;3.15;100.00;99474.66;1723894;83;20124;-76
2021/12/17 00:15:11;;;;;;;;;;;;;;;3.13;100.00;99474.12;1723853;82;21617;-77
2021/12/17 00:17:48;;;;;;;;;;;;;;;3.09;100.00;99477.91;1724021;83;20124;-77
2021/12/17 00:50:31;;;;;;;;;;;;;;;2.94;100.00;99462.95;1724021;82;20615;-76
2021/12/17 00:52:28;;;;;;;;;;;;;;;2.95;100.00;99472.72;1721093;83;20136;-76
2021/12/17 00:54:53;;;;;;;;;;;;;;;2.94;100.00;99462.95;1724161;83;21536;-75
2021/12/17 00:57:23;;;;;;;;;;;;;;;2.94;100.00;99467.84;1723894;83;20557;-75
2021/12/17 00:59:50;;;;;;;;;;;;;;;2.95;100.00;99468.66;1724370;82;20120;-72
2021/12/17 01:02:20;;;;;;;;;;;;;;;2.95;100.00;99468.66;1724005;82;20434;-72
2021/12/17 01:04:49;;;;;;;;;;;;;;;2.95;100.00;99467.30;1724162;82;20107;-72
2021/12/17 01:07:18;;;;;;;;;;;;;;;2.97;100.00;99461.06;1724549;83;21147;-72
2021/12/17 01:09:45;;;;;;;;;;;;;;;2.99;100.00;99460.26;1726350;83;20422;-72
2021/12/17 01:12:13;;;;;;;;;;;;;;;2.97;100.00;99458.36;1726107;82;20132;-72
2021/12/17 01:14:45;;;;;;;;;;;;;;;2.97;100.00;99455.10;1724085;83;20108;-72
2021/12/17 01:17:20;;;;;;;;;;;;;;;3.01;100.00;99456.73;1725267;83;20120;-74
2021/12/17 01:20:18;;;;;;;;;;;;;;;3.01;100.00;99445.89;1725859;83;21474;-75
2021/12/17 01:22:57;;;;;;;;;;;;;;;3.02;100.00;99448.06;1723164;83;20112;-74
2021/12/17 01:25:15;;;;;;;;;;;;;;;3.01;100.00;99451.31;1723945;83;20107;-74
2021/12/17 01:36:31;;;;;;;;;;;;;;;3.00;100.00;99440.19;1724352;83;20443;-74
2021/12/17 01:43:59;;;;;;;;;;;;;;;3.01;100.00;99436.39;1726176;83;20132;-74
2021/12/17 01:46:27;;;;;;;;;;;;;;;3.02;100.00;99426.36;1726523;83;22076;-74
2021/12/17 01:59:46;;;;;;;;;;;;;;;3.02;100.00;99433.95;1726019;82;21057;-75
2021/12/17 02:02:12;;;;;;;;;;;;;;;3.00;100.00;99427.98;1726217;83;20440;-76
2021/12/17 02:04:41;;;;;;;;;;;;;;;2.94;100.00;99425.81;1726000;82;20100;-75
2021/12/17 02:07:07;;;;;;;;;;;;;;;2.87;100.00;99431.25;1727135;83;20222;-74
2021/12/17 02:29:15;;;;;;;;;;;;;;;2.55;100.00;99416.52;1734545;82;20115;-74
2021/12/17 02:31:28;;;;;;;;;;;;;;;2.51;100.00;99416.23;1684612;85;20107;-75
2021/12/17 02:34:01;;;;;;;;;;;;;;;2.50;100.00;99417.31;1687642;85;20142;-75
2021/12/17 02:36:30;;;;;;;;;;;;;;;2.49;100.00;99412.98;1656823;85;20500;-75
2021/12/17 02:39:16;;;;;;;;;;;;;;;2.47;100.00;99415.67;1691846;85;21530;-74
2021/12/17 02:47:01;;;;;;;;;;;;;;;2.45;100.00;99402.39;1690990;85;20109;-75
2021/12/17 02:49:28;;;;;;;;;;;;;;;2.44;100.00;99399.41;1691781;84;20172;-75
2021/12/17 02:51:54;;;;;;;;;;;;;;;2.46;100.00;99398.60;1664075;85;21968;-75
2021/12/17 02:54:20;;;;;;;;;;;;;;;2.46;100.00;99397.79;1691684;85;20091;-75
2021/12/17 02:56:47;;;;;;;;;;;;;;;2.45;100.00;99401.04;1692019;85;20127;-75
2021/12/17 02:59:13;;;;;;;;;;;;;;;2.44;100.00;99398.05;1691759;85;20450;-74
2021/12/17 03:01:42;;;;;;;;;;;;;;;2.49;100.00;99399.97;1691757;85;20107;-74
2021/12/17 03:04:09;;;;;;;;;;;;;;;2.50;100.00;99392.11;1691700;85;21551;-75
2021/12/17 03:06:36;;;;;;;;;;;;;;;2.51;100.00;99398.62;1691621;84;20095;-75
2021/12/17 03:09:04;;;;;;;;;;;;;;;2.52;100.00;99393.48;1677032;85;20128;-75
2021/12/17 03:11:31;;;;;;;;;;;;;;;2.53;100.00;99392.39;1673874;86;20800;-75
2021/12/17 03:13:57;;;;;;;;;;;;;;;2.55;100.00;99389.42;1673818;86;20125;-75
2021/12/17 03:16:32;;;;;;;;;;;;;;;2.56;100.00;99391.05;1673851;85;20449;-74
2021/12/17 03:19:10;;;;;;;;;;;;;;;2.57;100.00;99390.78;1673128;85;20406;-74
2021/12/17 03:24:09;;;;;;;;;;;;;;;2.56;100.00;99383.73;1673849;86;20089;-75
2021/12/17 03:26:35;;;;;;;;;;;;;;;2.57;100.00;99381.84;1673796;86;20093;-75
2021/12/17 03:29:06;;;;;;;;;;;;;;;2.56;100.00;99381.56;1673784;85;21112;-74
2021/12/17 03:31:33;;;;;;;;;;;;;;;2.54;100.00;99385.08;1673817;85;37702;-74
2021/12/17 03:34:16;;;;;;;;;;;;;;;2.53;100.00;99385.62;1673948;86;20120;-74
2021/12/17 03:36:33;;;;;;;;;;;;;;;2.53;100.00;99394.29;1672193;86;20088;-74
2021/12/17 03:38:59;;;;;;;;;;;;;;;2.52;100.00;99385.88;1673821;86;20416;-74
2021/12/17 03:41:29;;;;;;;;;;;;;;;2.52;100.00;99383.17;1673801;85;21917;-74
2021/12/17 03:43:56;;;;;;;;;;;;;;;2.50;100.00;99382.09;1673513;85;20630;-75
2021/12/17 03:46:25;;;;;;;;;;;;;;;2.49;100.00;99380.45;1673685;85;20104;-74
2021/12/17 03:48:53;;;;;;;;;;;;;;;2.50;100.00;99381.27;1674034;86;20172;-74
2021/12/17 03:51:19;;;;;;;;;;;;;;;2.48;100.00;99380.72;1674079;85;20125;-74
2021/12/17 03:53:54;;;;;;;;;;;;;;;2.47;100.00;99377.20;1673812;86;21541;-75
2021/12/17 03:56:21;;;;;;;;;;;;;;;2.46;100.00;99370.69;1668608;85;20430;-75
2021/12/17 03:58:49;;;;;;;;;;;;;;;2.48;100.00;99368.53;1653168;85;20080;-75
2021/12/17 04:01:17;;;;;;;;;;;;;;;2.47;100.00;99375.84;1675283;85;20431;-75
2021/12/17 04:03:43;;;;;;;;;;;;;;;2.45;100.00;99377.19;1683447;84;20190;-75
2021/12/17 04:06:12;;;;;;;;;;;;;;;2.46;100.00;99374.22;1681739;85;21215;-75
2021/12/17 04:08:48;;;;;;;;;;;;;;;2.48;100.00;99378.83;1685653;85;20101;-75
2021/12/17 04:11:32;;;;;;;;;;;;;;;2.45;100.00;99371.23;1660394;86;20113;-75
2021/12/17 04:14:01;;;;;;;;;;;;;;;2.47;100.00;99373.14;1661727;86;20390;-75
2021/12/17 04:16:32;;;;;;;;;;;;;;;2.49;100.00;99373.69;1661037;86;20124;-75
2021/12/17 04:18:58;;;;;;;;;;;;;;;2.49;100.00;99371.52;1660897;86;21540;-75
2021/12/17 04:21:25;;;;;;;;;;;;;;;2.47;100.00;99362.84;1662930;86;20096;-75
2021/12/17 04:23:54;;;;;;;;;;;;;;;2.47;100.00;99371.78;1663339;85;20101;-75
2021/12/17 04:26:21;;;;;;;;;;;;;;;2.47;100.00;99366.36;1674950;85;20486;-75
2021/12/17 04:28:50;;;;;;;;;;;;;;;2.47;100.00;99367.72;1675309;85;20128;-75
2021/12/17 04:31:20;;;;;;;;;;;;;;;2.47;100.00;99370.97;1674906;85;21488;-75
2021/12/17 04:33:47;;;;;;;;;;;;;;;2.48;100.00;99369.34;1685688;85;20454;-75
2021/12/17 04:36:19;;;;;;;;;;;;;;;2.48;100.00;99367.99;1685962;85;20156;-74
2021/12/17 04:38:42;;;;;;;;;;;;;;;2.48;100.00;99365.28;1656958;85;20127;-73
2021/12/17 04:43:58;;;;;;;;;;;;;;;2.52;100.00;99362.85;1686214;85;21126;-73
2021/12/17 04:46:27;;;;;;;;;;;;;;;2.52;100.00;99359.60;1683380;85;20112;-72
2021/12/17 04:59:48;;;;;;;;;;;;;;;2.50;100.00;99350.11;1685840;85;20120;-74
2021/12/17 05:02:16;;;;;;;;;;;;;;;2.50;100.00;99354.98;1686171;85;20099;-73
2021/12/17 05:04:54;;;;;;;;;;;;;;;2.51;100.00;99353.09;1685348;83;20144;-73
2021/12/17 05:07:23;;;;;;;;;;;;;;;2.49;100.00;99345.77;1686039;85;20450;-73
2021/12/17 05:10:03;;;;;;;;;;;;;;;2.47;100.00;99350.64;1685831;85;21559;-73
2021/12/17 05:20:49;;;;;;;;;;;;;;;2.34;100.00;99350.61;1685910;84;20116;-73
2021/12/17 05:23:11;;;;;;;;;;;;;;;2.34;100.00;99347.90;1684903;85;21212;-73
2021/12/17 05:25:38;;;;;;;;;;;;;;;2.33;100.00;99351.69;1685771;85;20076;-74
2021/12/17 05:28:04;;;;;;;;;;;;;;;2.29;100.00;99349.27;1685769;85;20142;-74
2021/12/17 05:30:34;;;;;;;;;;;;;;;2.27;100.00;99347.37;1685298;85;20555;-73
2021/12/17 05:33:01;;;;;;;;;;;;;;;2.25;100.00;99346.28;1666575;85;20088;-74
2021/12/17 05:35:28;;;;;;;;;;;;;;;2.25;100.00;99354.41;1684368;85;21554;-73
2021/12/17 05:37:56;;;;;;;;;;;;;;;2.25;100.00;99351.70;1684629;85;20156;-73
2021/12/17 05:40:23;;;;;;;;;;;;;;;2.25;100.00;99353.59;1684366;84;20434;-73
2021/12/17 05:42:54;;;;;;;;;;;;;;;2.24;100.00;99348.71;1684420;85;20150;-73
2021/12/17 05:45:22;;;;;;;;;;;;;;;2.25;100.00;99349.53;1684088;85;20120;-73
2021/12/17 05:47:49;;;;;;;;;;;;;;;2.25;100.00;99353.59;1684445;84;21999;-74
2021/12/17 05:50:15;;;;;;;;;;;;;;;2.26;100.00;99349.80;1684323;85;21017;-73
2021/12/17 05:52:42;;;;;;;;;;;;;;;2.26;100.00;99345.73;1684389;84;20427;-73
2021/12/17 05:55:09;;;;;;;;;;;;;;;2.26;100.00;99341.67;1684329;85;20571;-73
2021/12/17 05:57:35;;;;;;;;;;;;;;;2.24;100.00;99334.36;1684697;85;20429;-73
2021/12/17 06:00:03;;;;;;;;;;;;;;;2.26;100.00;99330.84;1684369;85;21143;-73
2021/12/17 06:02:30;;;;;;;;;;;;;;;2.24;100.00;99334.36;1655053;85;20092;-73
2021/12/17 06:04:59;;;;;;;;;;;;;;;2.24;100.00;99341.12;1684361;85;20095;-73
2021/12/17 06:07:27;;;;;;;;;;;;;;;2.22;100.00;99333.81;1684324;85;20124;-73
2021/12/17 06:09:54;;;;;;;;;;;;;;;2.23;100.00;99336.25;1674617;85;20723;-73
2021/12/17 06:12:22;;;;;;;;;;;;;;;2.23;100.00;99340.31;1671912;86;21583;-73
2021/12/17 06:14:49;;;;;;;;;;;;;;;2.24;100.00;99339.77;1650407;86;20088;-74
2021/12/17 06:17:15;;;;;;;;;;;;;;;2.24;100.00;99344.65;1671891;86;20085;-73
2021/12/17 06:19:43;;;;;;;;;;;;;;;2.27;100.00;99346.02;1671884;86;20124;-73
2021/12/17 06:22:10;;;;;;;;;;;;;;;2.25;100.00;99345.46;1672491;86;20116;-75
2021/12/17 06:24:38;;;;;;;;;;;;;;;2.23;100.00;99348.98;1673227;86;21564;-74
2021/12/17 06:27:04;;;;;;;;;;;;;;;2.23;100.00;99351.69;1673539;86;20132;-74
2021/12/17 06:29:31;;;;;;;;;;;;;;;2.24;100.00;99343.83;1673290;86;20116;-74
2021/12/17 06:31:59;;;;;;;;;;;;;;;2.23;100.00;99345.73;1673177;85;20352;-76
2021/12/17 06:34:25;;;;;;;;;;;;;;;2.26;100.00;99337.61;1673417;86;20133;-75
2021/12/17 06:36:51;;;;;;;;;;;;;;;2.29;100.00;99338.44;1652017;86;21529;-74
2021/12/17 06:39:18;;;;;;;;;;;;;;;2.27;100.00;99344.66;1673335;86;20124;-74
2021/12/17 06:41:44;;;;;;;;;;;;;;;2.26;100.00;99345.20;1673562;86;20155;-73
2021/12/17 06:44:13;;;;;;;;;;;;;;;2.26;100.00;99340.32;1673337;86;20424;-73
2021/12/17 06:46:56;;;;;;;;;;;;;;;2.26;100.00;99343.84;1673663;85;20088;-75
2021/12/17 06:49:29;;;;;;;;;;;;;;;2.27;100.00;99339.24;1670770;85;21870;-74
2021/12/17 06:58:00;;;;;;;;;;;;;;;2.26;100.00;99337.08;1672699;85;20195;-72
2021/12/17 07:06:08;;;;;;;;;;;;;;;2.24;100.00;99341.12;1673274;86;20112;-70
2021/12/17 07:33:20;;;;;;;;;;;;;;;2.16;100.00;99348.41;1672560;85;20477;-71
2021/12/17 07:40:56;;;;;;;;;;;;;;;2.19;100.00;99341.11;1658210;85;20119;-72
2021/12/17 07:43:30;;;;;;;;;;;;;;;2.21;100.00;99341.66;1660752;85;21089;-72
2021/12/17 07:45:52;;;;;;;;;;;;;;;2.22;100.00;99339.22;1657258;84;20112;-82
2021/12/17 07:48:21;;;;;;;;;;;;;;;2.26;100.00;99341.67;1663938;85;20099;-72
2021/12/17 07:51:00;;;;;;;;;;;;;;;2.29;100.00;99343.31;1725038;82;20421;-73
2021/12/17 07:53:35;;;;;;;;;;;;;;;2.32;100.00;99346.00;1728131;82;20159;-72
2021/12/17 07:56:04;;;;;;;;;;;;;;;2.36;100.00;99343.57;1733532;82;21126;-73
2021/12/17 07:58:32;;;;;;;;;;;;;;;2.39;100.00;99346.56;1734696;82;20144;-71
2021/12/17 08:00:59;;;;;;;;;;;;;;;2.39;100.00;99346.56;1734215;83;20175;-74
2021/12/17 08:03:25;;;;;;;;;;;;;;;2.41;100.00;99349.00;1734385;83;20160;-72
2021/12/17 08:06:02;;;;;;;;;;;;;;;2.41;100.00;99352.53;1723265;82;20451;-74
2021/12/17 08:08:31;;;;;;;;;;;;;;;2.45;100.00;99347.39;1733350;82;21793;-73
2021/12/17 08:11:00;;;;;;;;;;;;;;;2.47;100.00;99339.27;1726863;82;20184;-73
2021/12/17 08:13:30;;;;;;;;;;;;;;;2.50;100.00;99347.41;1726104;83;20426;-71
2021/12/17 08:16:28;;;;;;;;;;;;;;;2.52;100.00;99347.41;1726005;82;20124;-71
2021/12/17 08:19:06;;;;;;;;;;;;;;;2.56;100.00;99348.50;1724132;83;20115;-71
2021/12/17 08:26:52;;;;;;;;;;;;;;;2.67;100.00;99340.39;1707498;83;20195;-71
2021/12/17 08:29:43;;;;;;;;;;;;;;;2.73;100.00;99336.61;1685445;83;20444;-71
2021/12/17 08:31:56;;;;;;;;;;;;;;;2.77;100.00;99329.56;1700243;82;20216;-71
2021/12/17 08:34:24;;;;;;;;;;;;;;;2.79;100.00;99339.59;1705244;83;21551;-70
2021/12/17 08:36:52;;;;;;;;;;;;;;;2.81;100.00;99329.30;1705117;83;20142;-70
2021/12/17 08:39:18;;;;;;;;;;;;;;;2.82;100.00;99337.70;1702829;83;20150;-70
2021/12/17 08:41:51;;;;;;;;;;;;;;;2.82;100.00;99339.05;1713943;83;20155;-70
2021/12/17 08:44:16;;;;;;;;;;;;;;;2.83;100.00;99332.55;1708372;82;20414;-70
2021/12/17 08:46:45;;;;;;;;;;;;;;;2.85;100.00;99333.09;1724044;83;21405;-79
2021/12/17 08:49:13;;;;;;;;;;;;;;;2.85;100.00;99329.84;1725604;83;20481;-76
2021/12/17 08:51:42;;;;;;;;;;;;;;;2.82;100.00;99325.50;1726865;83;20072;-69
2021/12/17 08:54:09;;;;;;;;;;;;;;;2.79;100.00;99324.69;1727571;82;20124;-82
2021/12/17 08:56:39;;;;;;;;;;;;;;;2.80;100.00;99323.60;1727782;83;20118;-85
2021/12/17 08:59:06;;;;;;;;;;;;;;;2.80;100.00;99320.89;1727667;83;21764;-82
2021/12/17 09:01:36;;;;;;;;;;;;;;;2.80;100.00;99323.60;1725025;83;20140;-82
2021/12/17 09:04:03;;;;;;;;;;;;;;;2.82;100.00;99309.23;1705702;83;20430;-75
2021/12/17 09:06:32;;;;;;;;;;;;;;;2.86;100.00;99313.84;1726929;83;20556;-77
2021/12/17 09:08:59;;;;;;;;;;;;;;;2.88;100.00;99312.22;1726794;83;20172;-73
2021/12/17 09:11:27;;;;;;;;;;;;;;;2.87;100.00;99313.30;1726057;82;21137;-76
2021/12/17 09:13:57;;;;;;;;;;;;;;;2.87;100.00;99308.70;1710145;83;20116;-78
2021/12/17 09:16:26;;;;;;;;;;;;;;;2.90;100.00;99305.95;1708524;82;20103;-79
2021/12/17 09:18:53;;;;;;;;;;;;;;;2.90;100.00;99295.92;1697070;84;20175;-77
2021/12/17 09:21:21;;;;;;;;;;;;;;;2.87;100.00;99298.39;1697795;82;20103;-83
2021/12/17 09:24:07;;;;;;;;;;;;;;;2.87;100.00;99299.75;1697776;83;21533;-78
2021/12/17 09:26:36;;;;;;;;;;;;;;;2.88;100.00;99300.83;1701134;82;20425;-74
2021/12/17 09:29:02;;;;;;;;;;;;;;;2.89;100.00;99298.91;1697020;84;20445;-72
2021/12/17 09:31:29;;;;;;;;;;;;;;;2.86;100.00;99292.16;1722592;83;20185;-77
2021/12/17 09:33:55;;;;;;;;;;;;;;;2.84;100.00;99288.09;1705502;83;20100;-77
2021/12/17 09:36:22;;;;;;;;;;;;;;;2.83;100.00;99287.82;1727643;82;21159;-75
2021/12/17 09:38:52;;;;;;;;;;;;;;;2.78;100.00;99281.85;1726029;82;20112;-81
2021/12/17 09:41:23;;;;;;;;;;;;;;;2.75;100.00;99294.59;1726353;83;20144;-76
2021/12/17 09:43:49;;;;;;;;;;;;;;;2.72;100.00;99296.48;1727176;82;20088;-76
2021/12/17 09:46:16;;;;;;;;;;;;;;;2.73;100.00;99291.87;1727718;83;20124;-77
2021/12/17 09:48:43;;;;;;;;;;;;;;;2.70;100.00;99284.29;1702720;82;21155;-77
2021/12/17 09:51:10;;;;;;;;;;;;;;;2.70;100.00;99293.23;1671535;85;20086;-77
2021/12/17 09:53:36;;;;;;;;;;;;;;;2.71;100.00;99290.80;1682252;85;20118;-78
2021/12/17 09:56:04;;;;;;;;;;;;;;;2.70;100.00;99283.75;1682236;85;20185;-77
2021/12/17 09:58:32;;;;;;;;;;;;;;;2.70;100.00;99284.29;1683162;85;20094;-76
2021/12/17 10:00:59;;;;;;;;;;;;;;;2.71;100.00;99280.49;1683068;85;21562;-76
2021/12/17 10:03:26;;;;;;;;;;;;;;;2.72;100.00;99286.19;1683148;85;20098;-78
2021/12/17 10:05:52;;;;;;;;;;;;;;;2.72;100.00;99283.48;1683132;85;20449;-78
2021/12/17 10:08:20;;;;;;;;;;;;;;;2.74;100.00;99282.13;1683168;85;20186;-77
2021/12/17 10:10:52;;;;;;;;;;;;;;;2.78;100.00;99282.40;1683001;85;20154;-77
2021/12/17 10:13:27;;;;;;;;;;;;;;;2.81;100.00;99279.14;1696950;83;21776;-77
2021/12/17 10:16:01;;;;;;;;;;;;;;;2.84;100.00;99273.18;1698254;83;20090;-77
2021/12/17 10:18:43;;;;;;;;;;;;;;;2.84;100.00;99264.50;1722833;82;20366;-77
2021/12/17 10:21:12;;;;;;;;;;;;;;;2.87;100.00;99273.45;1707000;83;20486;-76
2021/12/17 10:23:40;;;;;;;;;;;;;;;2.88;100.00;99269.66;1720963;82;20076;-78
2021/12/17 10:26:12;;;;;;;;;;;;;;;2.90;100.00;99272.06;1726445;82;21147;-80
2021/12/17 10:28:53;;;;;;;;;;;;;;;2.93;100.00;99266.09;1709753;82;20075;-81
2021/12/17 10:31:20;;;;;;;;;;;;;;;2.95;100.00;99269.35;1707837;83;20124;-79
2021/12/17 10:33:50;;;;;;;;;;;;;;;2.99;100.00;99270.43;1707101;84;20129;-77
2021/12/17 10:36:17;;;;;;;;;;;;;;;3.01;100.00;99272.88;1707141;83;20629;-77
2021/12/17 10:38:45;;;;;;;;;;;;;;;3.00;100.00;99269.34;1712709;83;20522;-78
2021/12/17 10:41:14;;;;;;;;;;;;;;;2.99;100.00;99263.11;1727422;83;20304;-78
2021/12/17 10:43:47;;;;;;;;;;;;;;;2.96;100.00;99261.48;1726612;82;20085;-79
2021/12/17 10:46:25;;;;;;;;;;;;;;;2.94;100.00;99265.02;1727623;82;20568;-78
2021/12/17 10:54:10;;;;;;;;;;;;;;;2.87;100.00;99258.54;1722305;83;20120;-78
2021/12/17 10:56:45;;;;;;;;;;;;;;;2.84;100.00;99262.34;1719741;82;20113;-76
2021/12/17 10:59:20;;;;;;;;;;;;;;;2.80;100.00;99257.19;1727706;83;20422;-76
2021/12/17 11:01:54;;;;;;;;;;;;;;;2.79;100.00;99257.73;1728120;83;20120;-75
2021/12/17 11:04:30;;;;;;;;;;;;;;;2.78;100.00;99250.68;1727403;81;21835;-77
2021/12/17 11:06:59;;;;;;;;;;;;;;;2.77;100.00;99255.83;1744226;82;20437;-76
2021/12/17 11:09:53;;;;;;;;;;;;;;;2.77;100.00;99252.30;1752893;82;20158;-76
2021/12/17 11:12:29;;;;;;;;;;;;;;;2.77;100.00;99256.38;1752677;82;20521;-76
2021/12/17 11:15:20;;;;;;;;;;;;;;;2.79;100.00;99260.98;1752677;82;20098;-76
2021/12/17 11:17:53;;;;;;;;;;;;;;;2.79;100.00;99263.69;1752650;82;21206;-76
2021/12/17 11:20:26;;;;;;;;;;;;;;;2.74;100.00;99256.91;1752681;82;20138;-76
2021/12/17 11:22:54;;;;;;;;;;;;;;;2.66;100.00;99260.98;1746624;82;20113;-77
2021/12/17 11:25:21;;;;;;;;;;;;;;;2.60;100.00;99256.09;1714870;83;20097;-76
2021/12/17 11:27:47;;;;;;;;;;;;;;;2.57;100.00;99246.34;1714894;83;20121;-76
2021/12/17 11:30:19;;;;;;;;;;;;;;;2.52;100.00;99252.56;1714808;83;21142;-76
2021/12/17 11:32:47;;;;;;;;;;;;;;;2.52;100.00;99250.40;1713501;83;20448;-76
2021/12/17 11:35:15;;;;;;;;;;;;;;;2.53;100.00;99249.31;1714832;83;20491;-77
2021/12/17 11:37:43;;;;;;;;;;;;;;;2.54;100.00;99242.27;1715338;83;20421;-77
2021/12/17 11:40:23;;;;;;;;;;;;;;;2.56;100.00;99244.72;1693055;83;20074;-77
2021/12/17 11:43:15;;;;;;;;;;;;;;;2.56;100.00;99246.88;1715163;83;21524;-78
2021/12/17 11:45:43;;;;;;;;;;;;;;;2.57;100.00;99245.80;1714804;83;20109;-77
2021/12/17 11:48:21;;;;;;;;;;;;;;;2.58;100.00;99251.48;1715075;83;20452;-77
2021/12/17 11:50:46;;;;;;;;;;;;;;;2.63;100.00;99243.91;1714220;83;20135;-77
2021/12/17 11:53:18;;;;;;;;;;;;;;;2.68;100.00;99248.52;1715116;83;20169;-77
2021/12/17 11:55:47;;;;;;;;;;;;;;;2.73;100.00;99249.87;1723666;83;22295;-77
2021/12/17 11:58:16;;;;;;;;;;;;;;;2.78;100.00;99251.22;1725766;83;20084;-77
2021/12/17 12:00:45;;;;;;;;;;;;;;;2.84;100.00;99248.78;1726197;83;20403;-77
2021/12/17 12:03:21;;;;;;;;;;;;;;;2.91;100.00;99249.28;1725899;83;20183;-77
2021/12/17 12:05:49;;;;;;;;;;;;;;;2.94;100.00;99254.16;1725957;83;20474;-77
2021/12/17 12:08:49;;;;;;;;;;;;;;;2.94;100.00;99250.09;1726098;82;22179;-77
2021/12/17 12:11:28;;;;;;;;;;;;;;;2.96;100.00;99256.88;1725646;82;20148;-77
2021/12/17 12:13:55;;;;;;;;;;;;;;;2.94;100.00;99253.63;1725937;82;20477;-76
2021/12/17 12:16:25;;;;;;;;;;;;;;;2.89;99.09;99254.98;1725832;82;20426;-75
2021/12/17 12:18:53;;;;;;;;;;;;;;;2.85;100.00;99243.09;1725812;82;20088;-75
2021/12/17 12:21:21;;;;;;;;;;;;;;;2.84;100.00;99255.56;1725877;82;21150;-76
2021/12/17 12:23:58;;;;;;;;;;;;;;;2.83;100.00;99260.71;1726602;82;20423;-77
2021/12/17 12:26:26;;;;;;;;;;;;;;;2.79;100.00;99256.91;1727743;83;20095;-77
2021/12/17 12:29:03;;;;;;;;;;;;;;;2.76;100.00;99258.27;1727409;83;20096;-76
2021/12/17 12:31:35;;;;;;;;;;;;;;;2.76;100.00;99262.88;1713388;83;20107;-76
2021/12/17 12:34:05;;;;;;;;;;;;;;;2.76;100.00;99264.23;1712554;83;21863;-77
2021/12/17 12:36:52;;;;;;;;;;;;;;;2.71;99.72;99272.36;1722984;81;20131;-77
2021/12/17 12:39:29;;;;;;;;;;;;;;;2.68;99.80;99279.14;1722849;83;20147;-76
2021/12/17 12:41:59;;;;;;;;;;;;;;;2.61;98.05;99276.70;1723115;83;20525;-77
2021/12/17 12:44:48;;;;;;;;;;;;;;;2.57;98.50;99281.56;1722843;83;20114;-78
2021/12/17 12:47:32;;;;;;;;;;;;;;;2.52;98.82;99278.31;1722217;83;21722;-77
2021/12/17 12:50:13;;;;;;;;;;;;;;;2.48;99.61;99270.98;1721351;83;20142;-77
2021/12/17 12:52:44;;;;;;;;;;;;;;;2.48;100.00;99274.52;1723094;83;20083;-78
2021/12/17 12:55:15;;;;;;;;;;;;;;;2.45;100.00;99275.05;1722870;81;20446;-78
2021/12/17 12:57:43;;;;;;;;;;;;;;;2.45;100.00;99287.24;1723260;83;20146;-78
2021/12/17 13:00:13;;;;;;;;;;;;;;;2.45;100.00;99287.78;1722941;83;21144;-78
2021/12/17 13:02:40;;;;;;;;;;;;;;;2.45;100.00;99291.84;1723349;83;20441;-78
2021/12/17 13:05:07;;;;;;;;;;;;;;;2.46;100.00;99288.87;1722989;82;20140;-77
2021/12/17 13:07:35;;;;;;;;;;;;;;;2.45;100.00;99289.14;1722955;83;20190;-76
2021/12/17 13:10:16;;;;;;;;;;;;;;;2.42;100.00;99282.36;1722951;82;20075;-77
2021/12/17 13:13:19;;;;;;;;;;;;;;;2.40;100.00;99287.23;1722956;83;21767;-78
2021/12/17 13:24:15;;;;;;;;;;;;;;;2.31;100.00;99294.28;1707321;83;20086;-77
2021/12/17 13:26:33;;;;;;;;;;;;;;;2.28;100.00;99289.41;1694337;84;22209;-77
2021/12/17 13:29:06;;;;;;;;;;;;;;;2.24;100.00;99297.79;1696998;84;20111;-77
2021/12/17 13:31:43;;;;;;;;;;;;;;;2.23;100.00;99294.81;1697047;84;20102;-78
2021/12/17 13:34:24;;;;;;;;;;;;;;;2.24;100.00;99301.31;1697091;83;20153;-78
2021/12/17 13:37:06;;;;;;;;;;;;;;;2.23;100.00;99296.98;1697425;84;20436;-79
2021/12/17 13:39:52;;;;;;;;;;;;;;;2.16;100.00;99303.19;1697055;84;21488;-78
2021/12/17 13:42:20;;;;;;;;;;;;;;;2.12;100.00;99309.40;1697246;84;20075;-78
2021/12/17 13:44:52;;;;;;;;;;;;;;;1.98;100.00;99305.02;1697050;83;20174;-78
2021/12/17 13:47:22;;;;;;;;;;;;;;;1.81;100.00;99303.05;1696005;84;20094;-78
2021/12/17 13:50:06;;;;;;;;;;;;;;;1.71;100.00;99299.79;1697189;84;20102;-78
2021/12/17 13:52:36;;;;;;;;;;;;;;;1.59;100.00;99303.24;1697079;84;21160;-78
2021/12/17 13:55:05;;;;;;;;;;;;;;;1.49;100.00;99306.70;1697093;84;20102;-78
2021/12/17 13:57:32;;;;;;;;;;;;;;;1.39;100.00;99301.78;1697354;84;20086;-79
2021/12/17 14:00:16;;;;;;;;;;;;;;;1.32;100.00;99308.23;1697024;84;20102;-78
2021/12/17 14:02:44;;;;;;;;;;;;;;;1.23;100.00;99307.09;1696819;84;20122;-79
2021/12/17 14:05:21;;;;;;;;;;;;;;;1.14;100.00;99306.51;1697065;84;21456;-78
2021/12/17 14:07:50;;;;;;;;;;;;;;;1.08;100.00;99306.20;1678714;84;20091;-77
2021/12/17 14:10:19;;;;;;;;;;;;;;;1.03;100.00;99306.97;1697180;84;20110;-77
2021/12/17 14:12:46;;;;;;;;;;;;;;;1.02;100.00;99307.23;1704183;84;20465;-77
2021/12/17 14:15:15;;;;;;;;;;;;;;;0.99;100.00;99311.27;1704856;84;20150;-77
2021/12/17 14:17:46;;;;;;;;;;;;;;;0.99;100.00;99312.61;1705196;84;21126;-77
2021/12/17 14:20:30;;;;;;;;;;;;;;;1.03;100.00;99312.38;1704806;84;20433;-75
2021/12/17 14:23:02;;;;;;;;;;;;;;;1.06;100.00;99312.39;1710510;82;20131;-80
2021/12/17 14:25:43;;;;;;;;;;;;;;;1.07;100.00;99314.84;1734096;82;20146;-76
2021/12/17 14:28:17;;;;;;;;;;;;;;;1.07;100.00;99314.02;1735960;82;20196;-76
2021/12/17 14:30:46;;;;;;;;;;;;;;;1.08;100.00;99323.23;1735711;82;21122;-76
2021/12/17 14:33:15;;;;;;;;;;;;;;;1.07;100.00;99320.78;1735895;82;20415;-78
2021/12/17 14:35:55;;;;;;;;;;;;;;;1.02;100.00;99325.61;1735622;82;20123;-78
2021/12/17 14:38:24;;;;;;;;;;;;;;;1.04;100.00;99324.82;1724354;82;20170;-80
2021/12/17 14:40:55;;;;;;;;;;;;;;;1.07;100.00;99327.55;1715955;82;20119;-78
2021/12/17 14:43:27;;;;;;;;;;;;;;;1.08;100.00;99331.88;1706763;84;21776;-77
2021/12/17 14:46:12;;;;;;;;;;;;;;;1.06;100.00;99332.13;1705883;84;20408;-76
2021/12/17 14:48:38;;;;;;;;;;;;;;;1.09;100.00;99330.80;1724778;81;20116;-73
2021/12/17 15:02:12;;;;;;;;;;;;;;;1.08;100.00;99342.69;1703823;82;20119;-79
2021/12/17 15:04:23;;;;;;;;;;;;;;;1.10;100.00;99344.60;1731578;81;20084;-79
2021/12/17 15:06:49;;;;;;;;;;;;;;;1.10;100.00;99342.71;1731131;82;20417;-78
2021/12/17 15:09:15;;;;;;;;;;;;;;;1.12;100.00;99345.97;1728541;83;20954;-78
2021/12/17 15:11:42;;;;;;;;;;;;;;;1.11;100.00;99336.23;1730063;82;20075;-78
2021/12/17 15:14:09;;;;;;;;;;;;;;;1.10;100.00;99344.06;1734159;82;20086;-76
2021/12/17 15:16:35;;;;;;;;;;;;;;;1.11;100.00;99342.17;1737389;82;20220;-77
2021/12/17 15:19:03;;;;;;;;;;;;;;;1.13;100.00;99340.03;1743548;82;20087;-76
2021/12/17 15:21:31;;;;;;;;;;;;;;;1.18;100.00;99346.26;1742692;82;21150;-76
2021/12/17 15:23:57;;;;;;;;;;;;;;;1.19;100.00;99346.53;1742964;82;20099;-76
2021/12/17 15:26:24;;;;;;;;;;;;;;;1.22;100.00;99347.91;1743646;82;20091;-76
2021/12/17 15:28:50;;;;;;;;;;;;;;;1.23;100.00;99349.00;1743452;82;20107;-78
2021/12/17 15:31:16;;;;;;;;;;;;;;;1.22;100.00;99351.42;1743546;82;20111;-76
2021/12/17 15:33:43;;;;;;;;;;;;;;;1.21;100.00;99355.20;1743415;82;21074;-77
2021/12/17 15:36:09;;;;;;;;;;;;;;;1.21;100.00;99349.80;1741313;82;20112;-78
2021/12/17 15:38:35;;;;;;;;;;;;;;;1.20;100.00;99350.05;1720923;82;20155;-78
2021/12/17 15:41:01;;;;;;;;;;;;;;;1.17;100.00;99348.69;1719605;82;20184;-77
2021/12/17 15:43:28;;;;;;;;;;;;;;;1.12;100.00;99347.32;1730778;82;20107;-77
2021/12/17 15:45:54;;;;;;;;;;;;;;;1.13;100.00;99357.06;1743735;82;21595;-76
2021/12/17 15:48:21;;;;;;;;;;;;;;;1.14;100.00;99347.88;1743016;82;20469;-78
2021/12/17 15:50:48;;;;;;;;;;;;;;;1.14;100.00;99350.58;1743747;82;20434;-76
2021/12/17 15:53:14;;;;;;;;;;;;;;;1.12;100.00;99353.27;1742398;82;20412;-75
2021/12/17 15:55:41;;;;;;;;;;;;;;;1.08;100.00;99357.02;1741905;82;20095;-78
2021/12/17 15:58:08;;;;;;;;;;;;;;;1.08;100.00;99357.56;1741834;82;21210;-79
2021/12/17 16:00:36;;;;;;;;;;;;;;;1.07;100.00;99359.45;1741999;82;20095;-77